Centenario Blu — 3FXD7 — position and weather

sailwx.info

Track history (hours):
 
Tides and Currents Weather Stations Pressure Air Temp Water Temp Dewpoint Dewpoint Depression Visibility Wind Speed Wind Dir Waves Ship Positions

Centenario Blu

Last reported at 2016-May-13 09:03 UTC. Time now 2016-May-25 03:26 UTC.
Position N 31°01' E 032°19'.
Warning: this ship's position is 11 days out of date.

Length 190 m; draft 12.1 m.

Type: Cargo ship. MMSI: 356832000.

Date/timePositionNaut miles runAvg speedWind from/ knotsBaromVisibWave heightAir tempDewpointWater temp
2016-May-13 09:03N 31°01' E 032°19'5 8.7
2016-May-13 08:32N 31°06' E 032°18'9 9.0
2016-May-13 07:33N 31°15' E 032°18'2 1.7
2016-May-13 06:28N 31°16' E 032°19'0 0.0
2016-May-13 05:31N 31°16' E 032°20'0 0.0
2016-May-13 04:31N 31°16' E 032°20'0 0.0
2016-May-13 03:31N 31°16' E 032°19'0 0.0
2016-May-13 02:31N 31°16' E 032°19'0 0.0
2016-May-13 00:31N 31°16' E 032°20'0 0.0
2016-May-12 23:19N 31°16' E 032°19'0 0.0
2016-May-12 22:25N 31°16' E 032°19'0 0.0
2016-May-12 21:25N 31°16' E 032°19'0 0.0
2016-May-12 20:25N 31°16' E 032°19'0 0.0
2016-May-12 18:07N 31°16' E 032°20'0 0.7
2016-May-12 17:33N 31°16' E 032°19'5 5.3
2016-May-12 16:33N 31°22' E 032°21'2 1.4
2016-May-12 15:27N 31°23' E 032°20'0 0.2
2016-May-12 14:33N 31°23' E 032°19'3 2.8
2016-May-12 13:33N 31°25' E 032°17'11 8.9
2016-May-12 12:17N 31°34' E 032°09'913.0
2016-May-12 11:33N 31°41' E 032°02'1313.0
2016-May-12 10:33N 31°48' E 031°49'1413.4
2016-May-12 09:33N 31°52' E 031°34'1313.4
2016-May-12 08:33N 31°55' E 031°19'10713.3
2016-May-12 00:33N 32°21' E 029°17'1513.7
2016-May-11 23:27N 32°25' E 028°59'1913.8
2016-May-11 22:04N 32°29' E 028°38'714.1
2016-May-11 21:34N 32°31' E 028°29'1414.3
2016-May-11 20:34N 32°35' E 028°13'1414.2
2016-May-11 19:33N 32°38' E 027°56'47613.9
2016-May-10 09:17N 34°35' E 018°42'913.0
2016-May-10 08:33N 34°37' E 018°31'7213.5
2016-May-10 03:13N 34°55' E 017°06'913.6
2016-May-10 02:34N 34°57' E 016°56'12413.2
2016-May-09 17:13N 35°28' E 014°29'913.7
2016-May-09 16:33N 35°34' E 014°20'1413.7
2016-May-09 15:33N 35°42' E 014°07'1413.5
2016-May-09 14:33N 35°50' E 013°53'1413.7
2016-May-09 13:32N 35°59' E 013°40'1813.4
2016-May-09 12:11N 36°10' E 013°23'  
2016-May-06 16:24N 36°01' W 005°10'911.1
2016-May-06 15:33N 36°04' W 005°21'5 4.5
2016-May-06 14:33N 36°08' W 005°22'0 0.1
2016-May-06 13:24N 36°08' W 005°23'0 0.1
2016-May-06 12:33N 36°08' W 005°23'0 0.0
2016-May-06 11:33N 36°08' W 005°23'0 0.0
2016-May-06 10:33N 36°08' W 005°23'0 0.2
2016-May-06 09:33N 36°08' W 005°23'0 0.2
2016-May-06 08:33N 36°08' W 005°23'0 0.1
2016-May-06 07:33N 36°08' W 005°23'0 0.0
2016-May-06 06:33N 36°08' W 005°23'0 0.0
2016-May-06 05:33N 36°08' W 005°23'0 0.0
2016-May-06 04:33N 36°08' W 005°23'3 2.6
2016-May-06 03:33N 36°05' W 005°22'5 5.3
2016-May-06 02:33N 36°00' W 005°22'8 7.5
2016-May-06 01:33N 35°57' W 005°30'  
2016-May-03 11:22N 35°26' W 022°09'1512.6
2016-May-03 10:10N 35°25' W 022°27'  
Track history (hours):
 
Tides and Currents Weather Stations Pressure Air Temp Water Temp Dewpoint Dewpoint Depression Visibility Wind Speed Wind Dir Waves Ship Positions

Centenario Blu

Last reported at 2016-May-13 09:03 UTC. Time now 2016-May-25 03:26 UTC.
Position N 31°01' E 032°19'.
Warning: this ship's position is 11 days out of date.

Length 190 m; draft 12.1 m.

Type: Cargo ship. MMSI: 356832000.

Date/timePositionNaut miles runAvg speedWind from/ knotsBaromVisibWave heightAir tempDewpointWater temp
2016-May-13 09:03N 31°01' E 032°19'5 8.7
2016-May-13 08:32N 31°06' E 032°18'9 9.0
2016-May-13 07:33N 31°15' E 032°18'2 1.7
2016-May-13 06:28N 31°16' E 032°19'0 0.0
2016-May-13 05:31N 31°16' E 032°20'0 0.0
2016-May-13 04:31N 31°16' E 032°20'0 0.0
2016-May-13 03:31N 31°16' E 032°19'0 0.0
2016-May-13 02:31N 31°16' E 032°19'0 0.0
2016-May-13 00:31N 31°16' E 032°20'0 0.0
2016-May-12 23:19N 31°16' E 032°19'0 0.0
2016-May-12 22:25N 31°16' E 032°19'0 0.0
2016-May-12 21:25N 31°16' E 032°19'0 0.0
2016-May-12 20:25N 31°16' E 032°19'0 0.0
2016-May-12 18:07N 31°16' E 032°20'0 0.7
2016-May-12 17:33N 31°16' E 032°19'5 5.3
2016-May-12 16:33N 31°22' E 032°21'2 1.4
2016-May-12 15:27N 31°23' E 032°20'0 0.2
2016-May-12 14:33N 31°23' E 032°19'3 2.8
2016-May-12 13:33N 31°25' E 032°17'11 8.9
2016-May-12 12:17N 31°34' E 032°09'913.0
2016-May-12 11:33N 31°41' E 032°02'1313.0
2016-May-12 10:33N 31°48' E 031°49'1413.4
2016-May-12 09:33N 31°52' E 031°34'1313.4
2016-May-12 08:33N 31°55' E 031°19'10713.3
2016-May-12 00:33N 32°21' E 029°17'1513.7
2016-May-11 23:27N 32°25' E 028°59'1913.8
2016-May-11 22:04N 32°29' E 028°38'714.1
2016-May-11 21:34N 32°31' E 028°29'1414.3
2016-May-11 20:34N 32°35' E 028°13'1414.2
2016-May-11 19:33N 32°38' E 027°56'47613.9
2016-May-10 09:17N 34°35' E 018°42'913.0
2016-May-10 08:33N 34°37' E 018°31'7213.5
2016-May-10 03:13N 34°55' E 017°06'913.6
2016-May-10 02:34N 34°57' E 016°56'12413.2
2016-May-09 17:13N 35°28' E 014°29'913.7
2016-May-09 16:33N 35°34' E 014°20'1413.7
2016-May-09 15:33N 35°42' E 014°07'1413.5
2016-May-09 14:33N 35°50' E 013°53'1413.7
2016-May-09 13:32N 35°59' E 013°40'1813.4
2016-May-09 12:11N 36°10' E 013°23'  
2016-May-06 16:24N 36°01' W 005°10'911.1
2016-May-06 15:33N 36°04' W 005°21'5 4.5
2016-May-06 14:33N 36°08' W 005°22'0 0.1
2016-May-06 13:24N 36°08' W 005°23'0 0.1
2016-May-06 12:33N 36°08' W 005°23'0 0.0
2016-May-06 11:33N 36°08' W 005°23'0 0.0
2016-May-06 10:33N 36°08' W 005°23'0 0.2
2016-May-06 09:33N 36°08' W 005°23'0 0.2
2016-May-06 08:33N 36°08' W 005°23'0 0.1
2016-May-06 07:33N 36°08' W 005°23'0 0.0
2016-May-06 06:33N 36°08' W 005°23'0 0.0
2016-May-06 05:33N 36°08' W 005°23'0 0.0
2016-May-06 04:33N 36°08' W 005°23'3 2.6
2016-May-06 03:33N 36°05' W 005°22'5 5.3
2016-May-06 02:33N 36°00' W 005°22'8 7.5
2016-May-06 01:33N 35°57' W 005°30'  
2016-May-03 11:22N 35°26' W 022°09'1512.6
2016-May-03 10:10N 35°25' W 022°27'  

Dump ship's entire track history